Irene_c — WD12546 — position and weather

sailwx.info

Track history (hours):
 
Tides and Currents Weather Stations Pressure Air Temp Water Temp Dewpoint Dewpoint Depression Visibility Wind Speed Wind Dir Waves Ship Positions

Irene_c

Last reported at 2017-Oct-18 14:01 UTC. Time now 2017-Oct-18 16:35 UTC.
Position N 30°04' W 093°40'.

Length 8 m; draft 3 m.

MMSI: 367679290.

Date/timePositionNaut miles runAvg speedWind from/ knotsBaromVisibWave heightAir tempDewpointWater temp
2017-Oct-18 14:01N 30°04' W 093°40'2 4.3
2017-Oct-18 13:30N 30°04' W 093°38'2 4.5
2017-Oct-18 13:00N 30°04' W 093°35'2 4.3
2017-Oct-18 12:30N 30°04' W 093°33'2 4.2
2017-Oct-18 12:00N 30°04' W 093°30'2 4.3
2017-Oct-18 11:30N 30°04' W 093°28'2 4.3
2017-Oct-18 11:00N 30°04' W 093°26'2 4.0
2017-Oct-18 10:31N 30°04' W 093°23'1 2.4
2017-Oct-18 10:01N 30°04' W 093°22'0 0.0
2017-Oct-18 09:30N 30°04' W 093°22'0 0.1
2017-Oct-18 09:00N 30°04' W 093°22'0 0.1
2017-Oct-18 08:30N 30°04' W 093°22'0 0.0
2017-Oct-18 08:01N 30°04' W 093°22'0 0.0
2017-Oct-18 07:30N 30°04' W 093°22'0 0.3
2017-Oct-18 07:00N 30°04' W 093°22'2 4.4
2017-Oct-18 06:30N 30°05' W 093°20'2 3.6
2017-Oct-18 06:00N 30°05' W 093°18'2 3.4
2017-Oct-18 05:30N 30°04' W 093°16'3 5.3
2017-Oct-18 05:00N 30°02' W 093°15'2 4.4
2017-Oct-18 04:30N 30°00' W 093°14'0 0.5
2017-Oct-18 04:00N 29°60' W 093°13'1 2.5
2017-Oct-18 03:30N 29°59' W 093°12'3 5.4
2017-Oct-18 03:01N 29°57' W 093°10'3 5.1
2017-Oct-18 02:30N 29°56' W 093°08'3 5.7
2017-Oct-18 01:59N 29°56' W 093°04'  
2017-Oct-14 20:27N 29°56' W 093°02'2 4.2
2017-Oct-14 19:58N 29°56' W 093°05'2 4.2
2017-Oct-14 19:31N 29°56' W 093°07'2 4.2
2017-Oct-14 19:01N 29°56' W 093°09'2 4.3
2017-Oct-14 18:31N 29°58' W 093°11'2 4.4
2017-Oct-14 18:01N 29°59' W 093°13'2 4.2
2017-Oct-14 17:30N 30°01' W 093°14'1 1.5
2017-Oct-14 17:01N 30°02' W 093°14'2 3.1
2017-Oct-14 16:16N 30°04' W 093°16'1 4.2
2017-Oct-14 16:01N 30°05' W 093°17'1 2.4
2017-Oct-14 15:31N 30°05' W 093°18'0 0.9
2017-Oct-14 15:00N 30°06' W 093°18'1 1.7
2017-Oct-14 14:30N 30°06' W 093°19'0 0.1
2017-Oct-14 14:00N 30°06' W 093°19'0 0.7
2017-Oct-14 13:30N 30°06' W 093°18'0 0.1
2017-Oct-14 13:00N 30°06' W 093°18'2 3.2
2017-Oct-14 12:30N 30°05' W 093°20'2 3.3
2017-Oct-14 12:00N 30°04' W 093°21'1 1.9
2017-Oct-14 11:30N 30°04' W 093°22'0 0.0
2017-Oct-14 11:00N 30°04' W 093°22'0 0.0
2017-Oct-14 10:30N 30°04' W 093°22'1 1.1
2017-Oct-14 10:00N 30°04' W 093°21'0 0.9
2017-Oct-14 09:30N 30°04' W 093°22'0 0.1
2017-Oct-14 09:00N 30°04' W 093°22'1 1.0
2017-Oct-14 08:30N 30°04' W 093°21'0 0.3
2017-Oct-14 08:00N 30°04' W 093°21'1 1.8
2017-Oct-14 07:30N 30°04' W 093°21'0 0.1
2017-Oct-14 07:00N 30°04' W 093°20'0 0.3
2017-Oct-14 06:30N 30°04' W 093°21'2 3.8
2017-Oct-14 06:00N 30°06' W 093°20'3 5.7
2017-Oct-14 05:30N 30°09' W 093°20'3 5.7
2017-Oct-14 05:00N 30°11' W 093°18'2 4.6
2017-Oct-14 04:30N 30°12' W 093°16'2 3.3
2017-Oct-14 04:00N 30°14' W 093°15'1 2.2
2017-Oct-14 03:30N 30°15' W 093°15'1 1.5
2017-Oct-14 03:00N 30°15' W 093°14'1 2.9
2017-Oct-14 02:30N 30°15' W 093°12'0 0.5
2017-Oct-14 02:00N 30°15' W 093°12'0 0.0
2017-Oct-14 01:30N 30°15' W 093°12'0 0.0
2017-Oct-14 01:00N 30°15' W 093°12'0 0.0
2017-Oct-14 00:30N 30°15' W 093°12'0 0.0
2017-Oct-14 00:00N 30°15' W 093°12'0 0.0
2017-Oct-13 23:30N 30°15' W 093°12'0 0.0
2017-Oct-13 23:00N 30°15' W 093°12'0 0.0
2017-Oct-13 22:30N 30°15' W 093°12'0 0.0
2017-Oct-13 22:00N 30°15' W 093°12'0 0.0
2017-Oct-13 21:29N 30°15' W 093°12'0 0.0
2017-Oct-13 21:00N 30°15' W 093°12'0 0.0
2017-Oct-13 20:30N 30°15' W 093°12'0 0.0
2017-Oct-13 20:00N 30°15' W 093°12'0 0.0
2017-Oct-13 19:30N 30°15' W 093°12'0 0.0
2017-Oct-13 19:00N 30°15' W 093°12'0 0.0
2017-Oct-13 18:30N 30°15' W 093°12'0 0.0
2017-Oct-13 18:00N 30°15' W 093°12'0 0.0
2017-Oct-13 17:30N 30°15' W 093°12'0 0.0
2017-Oct-13 16:48N 30°15' W 093°12'0 0.0
2017-Oct-13 16:30N 30°15' W 093°12'0 0.0
2017-Oct-13 16:00N 30°15' W 093°12'0 0.0
2017-Oct-13 15:30N 30°15' W 093°12'0 0.0
2017-Oct-13 15:00N 30°15' W 093°12'0 0.0
2017-Oct-13 14:30N 30°15' W 093°12'0 0.0
2017-Oct-13 14:00N 30°15' W 093°12'0 0.0
2017-Oct-13 13:30N 30°15' W 093°12'0 0.1
2017-Oct-13 13:00N 30°15' W 093°12'1 2.8
2017-Oct-13 12:30N 30°15' W 093°14'1 1.6
2017-Oct-13 12:00N 30°15' W 093°14'1 2.8
2017-Oct-13 11:30N 30°14' W 093°15'1 1.6
2017-Oct-13 11:00N 30°13' W 093°15'2 4.6
2017-Oct-13 10:30N 30°12' W 093°17'2 4.9
2017-Oct-13 10:00N 30°10' W 093°19'2 4.8
2017-Oct-13 09:30N 30°08' W 093°20'3 5.2
2017-Oct-13 09:00N 30°05' W 093°20'2 3.4
2017-Oct-13 08:30N 30°04' W 093°21'0 0.9
2017-Oct-13 08:00N 30°04' W 093°21'0 0.1
2017-Oct-13 07:30N 30°04' W 093°21'0 0.0
2017-Oct-13 07:00N 30°04' W 093°21'0 0.0
2017-Oct-13 06:30N 30°04' W 093°21'0 0.0
2017-Oct-13 06:00N 30°04' W 093°21'0 0.0
2017-Oct-13 05:30N 30°04' W 093°21'0 0.0
2017-Oct-13 05:00N 30°04' W 093°21'0 0.0
2017-Oct-13 04:30N 30°04' W 093°21'0 0.0
2017-Oct-13 04:00N 30°04' W 093°21'0 0.0
2017-Oct-13 03:30N 30°04' W 093°21'0 0.0
2017-Oct-13 03:00N 30°04' W 093°21'0 0.0
2017-Oct-13 02:30N 30°04' W 093°21'0 0.0
2017-Oct-13 02:00N 30°04' W 093°21'0 0.0
2017-Oct-13 01:30N 30°04' W 093°21'0 0.0
2017-Oct-13 01:00N 30°04' W 093°21'0 0.1
2017-Oct-13 00:30N 30°04' W 093°21'0 0.9
2017-Oct-13 00:00N 30°04' W 093°22'1 1.0
2017-Oct-12 23:30N 30°04' W 093°21'1 1.1
2017-Oct-12 23:00N 30°04' W 093°22'1 2.0
2017-Oct-12 22:30N 30°04' W 093°23'2 4.7
2017-Oct-12 22:00N 30°04' W 093°26'2 4.6
2017-Oct-12 21:30N 30°04' W 093°28'2 4.5
2017-Oct-12 21:00N 30°04' W 093°31'2 4.4
2017-Oct-12 20:30N 30°04' W 093°34'2 4.3
2017-Oct-12 20:00N 30°04' W 093°36'74 3.2
2017-Oct-11 20:57N 29°30' W 094°52'2 4.0
2017-Oct-11 20:30N 29°31' W 094°53'2 3.9
2017-Oct-11 20:00N 29°33' W 094°54'2 4.0
2017-Oct-11 19:30N 29°34' W 094°56'2 3.8
2017-Oct-11 19:00N 29°36' W 094°57'2 3.8
2017-Oct-11 18:30N 29°38' W 094°58'2 3.5
2017-Oct-11 18:00N 29°39' W 094°58'2 3.6
2017-Oct-11 17:30N 29°41' W 094°59'1 2.2
2017-Oct-11 17:00N 29°41' W 095°00'  
Track history (hours):
 
Tides and Currents Weather Stations Pressure Air Temp Water Temp Dewpoint Dewpoint Depression Visibility Wind Speed Wind Dir Waves Ship Positions

Irene_c

Last reported at 2017-Oct-18 14:01 UTC. Time now 2017-Oct-18 16:35 UTC.
Position N 30°04' W 093°40'.

Length 8 m; draft 3 m.

MMSI: 367679290.

Date/timePositionNaut miles runAvg speedWind from/ knotsBaromVisibWave heightAir tempDewpointWater temp
2017-Oct-18 14:01N 30°04' W 093°40'2 4.3
2017-Oct-18 13:30N 30°04' W 093°38'2 4.5
2017-Oct-18 13:00N 30°04' W 093°35'2 4.3
2017-Oct-18 12:30N 30°04' W 093°33'2 4.2
2017-Oct-18 12:00N 30°04' W 093°30'2 4.3
2017-Oct-18 11:30N 30°04' W 093°28'2 4.3
2017-Oct-18 11:00N 30°04' W 093°26'2 4.0
2017-Oct-18 10:31N 30°04' W 093°23'1 2.4
2017-Oct-18 10:01N 30°04' W 093°22'0 0.0
2017-Oct-18 09:30N 30°04' W 093°22'0 0.1
2017-Oct-18 09:00N 30°04' W 093°22'0 0.1
2017-Oct-18 08:30N 30°04' W 093°22'0 0.0
2017-Oct-18 08:01N 30°04' W 093°22'0 0.0
2017-Oct-18 07:30N 30°04' W 093°22'0 0.3
2017-Oct-18 07:00N 30°04' W 093°22'2 4.4
2017-Oct-18 06:30N 30°05' W 093°20'2 3.6
2017-Oct-18 06:00N 30°05' W 093°18'2 3.4
2017-Oct-18 05:30N 30°04' W 093°16'3 5.3
2017-Oct-18 05:00N 30°02' W 093°15'2 4.4
2017-Oct-18 04:30N 30°00' W 093°14'0 0.5
2017-Oct-18 04:00N 29°60' W 093°13'1 2.5
2017-Oct-18 03:30N 29°59' W 093°12'3 5.4
2017-Oct-18 03:01N 29°57' W 093°10'3 5.1
2017-Oct-18 02:30N 29°56' W 093°08'3 5.7
2017-Oct-18 01:59N 29°56' W 093°04'  
2017-Oct-14 20:27N 29°56' W 093°02'2 4.2
2017-Oct-14 19:58N 29°56' W 093°05'2 4.2
2017-Oct-14 19:31N 29°56' W 093°07'2 4.2
2017-Oct-14 19:01N 29°56' W 093°09'2 4.3
2017-Oct-14 18:31N 29°58' W 093°11'2 4.4
2017-Oct-14 18:01N 29°59' W 093°13'2 4.2
2017-Oct-14 17:30N 30°01' W 093°14'1 1.5
2017-Oct-14 17:01N 30°02' W 093°14'2 3.1
2017-Oct-14 16:16N 30°04' W 093°16'1 4.2
2017-Oct-14 16:01N 30°05' W 093°17'1 2.4
2017-Oct-14 15:31N 30°05' W 093°18'0 0.9
2017-Oct-14 15:00N 30°06' W 093°18'1 1.7
2017-Oct-14 14:30N 30°06' W 093°19'0 0.1
2017-Oct-14 14:00N 30°06' W 093°19'0 0.7
2017-Oct-14 13:30N 30°06' W 093°18'0 0.1
2017-Oct-14 13:00N 30°06' W 093°18'2 3.2
2017-Oct-14 12:30N 30°05' W 093°20'2 3.3
2017-Oct-14 12:00N 30°04' W 093°21'1 1.9
2017-Oct-14 11:30N 30°04' W 093°22'0 0.0
2017-Oct-14 11:00N 30°04' W 093°22'0 0.0
2017-Oct-14 10:30N 30°04' W 093°22'1 1.1
2017-Oct-14 10:00N 30°04' W 093°21'0 0.9
2017-Oct-14 09:30N 30°04' W 093°22'0 0.1
2017-Oct-14 09:00N 30°04' W 093°22'1 1.0
2017-Oct-14 08:30N 30°04' W 093°21'0 0.3
2017-Oct-14 08:00N 30°04' W 093°21'1 1.8
2017-Oct-14 07:30N 30°04' W 093°21'0 0.1
2017-Oct-14 07:00N 30°04' W 093°20'0 0.3
2017-Oct-14 06:30N 30°04' W 093°21'2 3.8
2017-Oct-14 06:00N 30°06' W 093°20'3 5.7
2017-Oct-14 05:30N 30°09' W 093°20'3 5.7
2017-Oct-14 05:00N 30°11' W 093°18'2 4.6
2017-Oct-14 04:30N 30°12' W 093°16'2 3.3
2017-Oct-14 04:00N 30°14' W 093°15'1 2.2
2017-Oct-14 03:30N 30°15' W 093°15'1 1.5
2017-Oct-14 03:00N 30°15' W 093°14'1 2.9
2017-Oct-14 02:30N 30°15' W 093°12'0 0.5
2017-Oct-14 02:00N 30°15' W 093°12'0 0.0
2017-Oct-14 01:30N 30°15' W 093°12'0 0.0
2017-Oct-14 01:00N 30°15' W 093°12'0 0.0
2017-Oct-14 00:30N 30°15' W 093°12'0 0.0
2017-Oct-14 00:00N 30°15' W 093°12'0 0.0
2017-Oct-13 23:30N 30°15' W 093°12'0 0.0
2017-Oct-13 23:00N 30°15' W 093°12'0 0.0
2017-Oct-13 22:30N 30°15' W 093°12'0 0.0
2017-Oct-13 22:00N 30°15' W 093°12'0 0.0
2017-Oct-13 21:29N 30°15' W 093°12'0 0.0
2017-Oct-13 21:00N 30°15' W 093°12'0 0.0
2017-Oct-13 20:30N 30°15' W 093°12'0 0.0
2017-Oct-13 20:00N 30°15' W 093°12'0 0.0
2017-Oct-13 19:30N 30°15' W 093°12'0 0.0
2017-Oct-13 19:00N 30°15' W 093°12'0 0.0
2017-Oct-13 18:30N 30°15' W 093°12'0 0.0
2017-Oct-13 18:00N 30°15' W 093°12'0 0.0
2017-Oct-13 17:30N 30°15' W 093°12'0 0.0
2017-Oct-13 16:48N 30°15' W 093°12'0 0.0
2017-Oct-13 16:30N 30°15' W 093°12'0 0.0
2017-Oct-13 16:00N 30°15' W 093°12'0 0.0
2017-Oct-13 15:30N 30°15' W 093°12'0 0.0
2017-Oct-13 15:00N 30°15' W 093°12'0 0.0
2017-Oct-13 14:30N 30°15' W 093°12'0 0.0
2017-Oct-13 14:00N 30°15' W 093°12'0 0.0
2017-Oct-13 13:30N 30°15' W 093°12'0 0.1
2017-Oct-13 13:00N 30°15' W 093°12'1 2.8
2017-Oct-13 12:30N 30°15' W 093°14'1 1.6
2017-Oct-13 12:00N 30°15' W 093°14'1 2.8
2017-Oct-13 11:30N 30°14' W 093°15'1 1.6
2017-Oct-13 11:00N 30°13' W 093°15'2 4.6
2017-Oct-13 10:30N 30°12' W 093°17'2 4.9
2017-Oct-13 10:00N 30°10' W 093°19'2 4.8
2017-Oct-13 09:30N 30°08' W 093°20'3 5.2
2017-Oct-13 09:00N 30°05' W 093°20'2 3.4
2017-Oct-13 08:30N 30°04' W 093°21'0 0.9
2017-Oct-13 08:00N 30°04' W 093°21'0 0.1
2017-Oct-13 07:30N 30°04' W 093°21'0 0.0
2017-Oct-13 07:00N 30°04' W 093°21'0 0.0
2017-Oct-13 06:30N 30°04' W 093°21'0 0.0
2017-Oct-13 06:00N 30°04' W 093°21'0 0.0
2017-Oct-13 05:30N 30°04' W 093°21'0 0.0
2017-Oct-13 05:00N 30°04' W 093°21'0 0.0
2017-Oct-13 04:30N 30°04' W 093°21'0 0.0
2017-Oct-13 04:00N 30°04' W 093°21'0 0.0
2017-Oct-13 03:30N 30°04' W 093°21'0 0.0
2017-Oct-13 03:00N 30°04' W 093°21'0 0.0
2017-Oct-13 02:30N 30°04' W 093°21'0 0.0
2017-Oct-13 02:00N 30°04' W 093°21'0 0.0
2017-Oct-13 01:30N 30°04' W 093°21'0 0.0
2017-Oct-13 01:00N 30°04' W 093°21'0 0.1
2017-Oct-13 00:30N 30°04' W 093°21'0 0.9
2017-Oct-13 00:00N 30°04' W 093°22'1 1.0
2017-Oct-12 23:30N 30°04' W 093°21'1 1.1
2017-Oct-12 23:00N 30°04' W 093°22'1 2.0
2017-Oct-12 22:30N 30°04' W 093°23'2 4.7
2017-Oct-12 22:00N 30°04' W 093°26'2 4.6
2017-Oct-12 21:30N 30°04' W 093°28'2 4.5
2017-Oct-12 21:00N 30°04' W 093°31'2 4.4
2017-Oct-12 20:30N 30°04' W 093°34'2 4.3
2017-Oct-12 20:00N 30°04' W 093°36'74 3.2
2017-Oct-11 20:57N 29°30' W 094°52'2 4.0
2017-Oct-11 20:30N 29°31' W 094°53'2 3.9
2017-Oct-11 20:00N 29°33' W 094°54'2 4.0
2017-Oct-11 19:30N 29°34' W 094°56'2 3.8
2017-Oct-11 19:00N 29°36' W 094°57'2 3.8
2017-Oct-11 18:30N 29°38' W 094°58'2 3.5
2017-Oct-11 18:00N 29°39' W 094°58'2 3.6
2017-Oct-11 17:30N 29°41' W 094°59'1 2.2
2017-Oct-11 17:00N 29°41' W 095°00'  

Dump ship's entire track history